sensor_id;sensor_type;location;lat;lon;timestamp;P1;durP1;ratioP1;P2;durP2;ratioP2
65156;SDS011;52745;49.794;18.258;2022-08-20T00:01:28;16.52;;;7.68;;
65156;SDS011;52745;49.794;18.258;2022-08-20T00:03:55;17.50;;;8.27;;
65156;SDS011;52745;49.794;18.258;2022-08-20T00:06:22;16.25;;;7.90;;
65156;SDS011;52745;49.794;18.258;2022-08-20T00:08:49;19.20;;;7.72;;
65156;SDS011;52745;49.794;18.258;2022-08-20T00:11:21;17.75;;;7.90;;
65156;SDS011;52745;49.794;18.258;2022-08-20T00:13:51;17.80;;;8.27;;
65156;SDS011;52745;49.794;18.258;2022-08-20T00:16:20;15.75;;;7.82;;
65156;SDS011;52745;49.794;18.258;2022-08-20T00:18:50;17.73;;;8.43;;
65156;SDS011;52745;49.794;18.258;2022-08-20T00:21:17;14.90;;;7.63;;
65156;SDS011;52745;49.794;18.258;2022-08-20T00:23:46;14.40;;;7.40;;
65156;SDS011;52745;49.794;18.258;2022-08-20T00:26:14;14.63;;;7.57;;
65156;SDS011;52745;49.794;18.258;2022-08-20T00:28:42;14.68;;;7.50;;
65156;SDS011;52745;49.794;18.258;2022-08-20T00:31:10;15.38;;;8.10;;
65156;SDS011;52745;49.794;18.258;2022-08-20T00:33:38;14.35;;;7.00;;
65156;SDS011;52745;49.794;18.258;2022-08-20T00:36:05;19.42;;;6.85;;
65156;SDS011;52745;49.794;18.258;2022-08-20T00:38:35;14.73;;;7.05;;
65156;SDS011;52745;49.794;18.258;2022-08-20T00:41:03;22.23;;;11.40;;
65156;SDS011;52745;49.794;18.258;2022-08-20T00:46:07;14.50;;;6.93;;
65156;SDS011;52745;49.794;18.258;2022-08-20T00:48:38;20.60;;;9.80;;
65156;SDS011;52745;49.794;18.258;2022-08-20T00:57:05;14.77;;;6.35;;
65156;SDS011;52745;49.794;18.258;2022-08-20T00:59:36;15.65;;;6.45;;
65156;SDS011;52745;49.794;18.258;2022-08-20T01:02:06;12.40;;;6.18;;
65156;SDS011;52745;49.794;18.258;2022-08-20T01:04:36;10.80;;;6.38;;
65156;SDS011;52745;49.794;18.258;2022-08-20T01:07:04;16.40;;;6.60;;
65156;SDS011;52745;49.794;18.258;2022-08-20T01:09:33;16.42;;;6.78;;
65156;SDS011;52745;49.794;18.258;2022-08-20T01:12:01;14.82;;;8.15;;
65156;SDS011;52745;49.794;18.258;2022-08-20T01:14:27;16.92;;;8.18;;
65156;SDS011;52745;49.794;18.258;2022-08-20T01:17:03;17.23;;;7.55;;
65156;SDS011;52745;49.794;18.258;2022-08-20T01:19:37;19.33;;;7.70;;
65156;SDS011;52745;49.794;18.258;2022-08-20T01:22:06;19.30;;;7.88;;
65156;SDS011;52745;49.794;18.258;2022-08-20T01:24:57;16.42;;;7.25;;
65156;SDS011;52745;49.794;18.258;2022-08-20T01:27:29;13.63;;;7.47;;
65156;SDS011;52745;49.794;18.258;2022-08-20T01:29:57;19.05;;;7.03;;
65156;SDS011;52745;49.794;18.258;2022-08-20T01:32:26;20.73;;;7.43;;
65156;SDS011;52745;49.794;18.258;2022-08-20T01:34:52;14.60;;;7.07;;
65156;SDS011;52745;49.794;18.258;2022-08-20T01:37:19;20.20;;;8.52;;
65156;SDS011;52745;49.794;18.258;2022-08-20T01:39:45;23.98;;;10.00;;
65156;SDS011;52745;49.794;18.258;2022-08-20T01:44:50;23.13;;;11.18;;
65156;SDS011;52745;49.794;18.258;2022-08-20T01:47:20;21.58;;;11.65;;
65156;SDS011;52745;49.794;18.258;2022-08-20T01:49:51;25.50;;;11.27;;
65156;SDS011;52745;49.794;18.258;2022-08-20T01:52:25;28.10;;;12.18;;
65156;SDS011;52745;49.794;18.258;2022-08-20T01:54:53;37.33;;;12.63;;
65156;SDS011;52745;49.794;18.258;2022-08-20T01:57:20;28.83;;;13.27;;
65156;SDS011;52745;49.794;18.258;2022-08-20T01:59:52;25.45;;;13.48;;
65156;SDS011;52745;49.794;18.258;2022-08-20T02:02:19;29.17;;;13.50;;
65156;SDS011;52745;49.794;18.258;2022-08-20T02:04:46;32.63;;;13.98;;
65156;SDS011;52745;49.794;18.258;2022-08-20T02:07:17;28.25;;;13.93;;
65156;SDS011;52745;49.794;18.258;2022-08-20T02:09:46;32.15;;;13.90;;
65156;SDS011;52745;49.794;18.258;2022-08-20T02:12:14;31.63;;;13.48;;
65156;SDS011;52745;49.794;18.258;2022-08-20T02:14:42;32.38;;;13.23;;
65156;SDS011;52745;49.794;18.258;2022-08-20T02:17:10;41.22;;;13.80;;
65156;SDS011;52745;49.794;18.258;2022-08-20T02:22:18;30.30;;;14.05;;
65156;SDS011;52745;49.794;18.258;2022-08-20T02:24:48;34.13;;;13.30;;
65156;SDS011;52745;49.794;18.258;2022-08-20T02:27:15;29.40;;;14.68;;
65156;SDS011;52745;49.794;18.258;2022-08-20T02:29:41;29.42;;;14.70;;
65156;SDS011;52745;49.794;18.258;2022-08-20T02:32:08;26.27;;;13.68;;
65156;SDS011;52745;49.794;18.258;2022-08-20T02:34:35;27.55;;;14.40;;
65156;SDS011;52745;49.794;18.258;2022-08-20T02:37:02;34.53;;;14.43;;
65156;SDS011;52745;49.794;18.258;2022-08-20T02:39:31;29.92;;;14.30;;
65156;SDS011;52745;49.794;18.258;2022-08-20T02:41:58;28.90;;;14.02;;
65156;SDS011;52745;49.794;18.258;2022-08-20T02:44:24;35.03;;;14.10;;
65156;SDS011;52745;49.794;18.258;2022-08-20T02:46:51;27.13;;;14.60;;
65156;SDS011;52745;49.794;18.258;2022-08-20T02:49:17;33.25;;;14.48;;
65156;SDS011;52745;49.794;18.258;2022-08-20T02:51:44;32.30;;;12.98;;
65156;SDS011;52745;49.794;18.258;2022-08-20T02:54:12;35.40;;;16.10;;
65156;SDS011;52745;49.794;18.258;2022-08-20T02:56:39;26.60;;;12.68;;
65156;SDS011;52745;49.794;18.258;2022-08-20T02:59:05;25.30;;;12.13;;
65156;SDS011;52745;49.794;18.258;2022-08-20T03:01:33;50.65;;;28.63;;
65156;SDS011;52745;49.794;18.258;2022-08-20T03:03:59;32.58;;;15.55;;
65156;SDS011;52745;49.794;18.258;2022-08-20T03:06:26;81.93;;;41.78;;
65156;SDS011;52745;49.794;18.258;2022-08-20T03:08:53;40.63;;;18.35;;
65156;SDS011;52745;49.794;18.258;2022-08-20T03:11:19;28.95;;;14.40;;
65156;SDS011;52745;49.794;18.258;2022-08-20T03:13:46;30.90;;;13.05;;
65156;SDS011;52745;49.794;18.258;2022-08-20T03:16:13;28.40;;;12.27;;
65156;SDS011;52745;49.794;18.258;2022-08-20T03:18:41;30.92;;;12.98;;
65156;SDS011;52745;49.794;18.258;2022-08-20T03:21:10;25.67;;;11.23;;
65156;SDS011;52745;49.794;18.258;2022-08-20T03:23:38;22.85;;;11.10;;
65156;SDS011;52745;49.794;18.258;2022-08-20T03:26:07;21.80;;;10.07;;
65156;SDS011;52745;49.794;18.258;2022-08-20T03:28:36;26.88;;;10.60;;
65156;SDS011;52745;49.794;18.258;2022-08-20T03:31:03;24.08;;;10.35;;
65156;SDS011;52745;49.794;18.258;2022-08-20T03:33:30;24.25;;;9.80;;
65156;SDS011;52745;49.794;18.258;2022-08-20T03:35:57;20.52;;;9.77;;
65156;SDS011;52745;49.794;18.258;2022-08-20T03:38:24;18.38;;;10.07;;
65156;SDS011;52745;49.794;18.258;2022-08-20T03:40:50;22.92;;;9.15;;
65156;SDS011;52745;49.794;18.258;2022-08-20T03:43:17;23.52;;;10.18;;
65156;SDS011;52745;49.794;18.258;2022-08-20T03:45:44;28.98;;;10.13;;
65156;SDS011;52745;49.794;18.258;2022-08-20T03:48:13;22.63;;;10.02;;
65156;SDS011;52745;49.794;18.258;2022-08-20T03:50:42;22.52;;;9.73;;
65156;SDS011;52745;49.794;18.258;2022-08-20T03:53:11;21.13;;;10.55;;
65156;SDS011;52745;49.794;18.258;2022-08-20T03:55:39;21.77;;;10.05;;
65156;SDS011;52745;49.794;18.258;2022-08-20T03:58:08;27.23;;;11.65;;
65156;SDS011;52745;49.794;18.258;2022-08-20T04:00:37;24.92;;;12.48;;
65156;SDS011;52745;49.794;18.258;2022-08-20T04:03:06;23.27;;;11.60;;
65156;SDS011;52745;49.794;18.258;2022-08-20T04:05:34;28.55;;;11.80;;
65156;SDS011;52745;49.794;18.258;2022-08-20T04:08:09;33.50;;;12.98;;
65156;SDS011;52745;49.794;18.258;2022-08-20T04:10:41;24.60;;;12.02;;
65156;SDS011;52745;49.794;18.258;2022-08-20T04:13:08;28.02;;;12.50;;
65156;SDS011;52745;49.794;18.258;2022-08-20T04:15:35;27.52;;;12.63;;
65156;SDS011;52745;49.794;18.258;2022-08-20T04:18:04;26.20;;;12.45;;
65156;SDS011;52745;49.794;18.258;2022-08-20T04:20:33;28.67;;;12.43;;
65156;SDS011;52745;49.794;18.258;2022-08-20T04:23:01;19.05;;;11.93;;
65156;SDS011;52745;49.794;18.258;2022-08-20T04:25:28;28.15;;;12.25;;
65156;SDS011;52745;49.794;18.258;2022-08-20T04:27:57;21.83;;;11.68;;
65156;SDS011;52745;49.794;18.258;2022-08-20T04:30:25;25.20;;;11.57;;
65156;SDS011;52745;49.794;18.258;2022-08-20T04:32:52;28.02;;;11.75;;
65156;SDS011;52745;49.794;18.258;2022-08-20T04:35:20;27.42;;;11.68;;
65156;SDS011;52745;49.794;18.258;2022-08-20T04:37:55;24.83;;;12.10;;
65156;SDS011;52745;49.794;18.258;2022-08-20T04:40:26;22.77;;;13.10;;
65156;SDS011;52745;49.794;18.258;2022-08-20T04:43:13;24.00;;;11.82;;
65156;SDS011;52745;49.794;18.258;2022-08-20T04:45:41;25.65;;;12.55;;
65156;SDS011;52745;49.794;18.258;2022-08-20T04:48:08;22.73;;;12.93;;
65156;SDS011;52745;49.794;18.258;2022-08-20T04:50:36;24.88;;;14.15;;
65156;SDS011;52745;49.794;18.258;2022-08-20T04:53:04;30.02;;;15.93;;
65156;SDS011;52745;49.794;18.258;2022-08-20T04:55:33;35.47;;;20.25;;
65156;SDS011;52745;49.794;18.258;2022-08-20T04:58:02;33.67;;;16.35;;
65156;SDS011;52745;49.794;18.258;2022-08-20T05:00:30;28.48;;;16.40;;
65156;SDS011;52745;49.794;18.258;2022-08-20T05:02:57;26.15;;;16.50;;
65156;SDS011;52745;49.794;18.258;2022-08-20T05:05:23;35.50;;;17.77;;
65156;SDS011;52745;49.794;18.258;2022-08-20T05:07:52;31.10;;;17.15;;
65156;SDS011;52745;49.794;18.258;2022-08-20T05:10:18;26.02;;;16.25;;
65156;SDS011;52745;49.794;18.258;2022-08-20T05:12:45;30.83;;;15.10;;
65156;SDS011;52745;49.794;18.258;2022-08-20T05:15:11;29.00;;;16.08;;
65156;SDS011;52745;49.794;18.258;2022-08-20T05:17:39;26.60;;;15.23;;
65156;SDS011;52745;49.794;18.258;2022-08-20T05:20:07;25.20;;;15.13;;
65156;SDS011;52745;49.794;18.258;2022-08-20T05:22:35;26.08;;;14.35;;
65156;SDS011;52745;49.794;18.258;2022-08-20T05:25:02;24.60;;;13.75;;
65156;SDS011;52745;49.794;18.258;2022-08-20T05:27:29;26.33;;;13.88;;
65156;SDS011;52745;49.794;18.258;2022-08-20T05:29:59;25.23;;;13.02;;
65156;SDS011;52745;49.794;18.258;2022-08-20T05:32:30;21.77;;;12.43;;
65156;SDS011;52745;49.794;18.258;2022-08-20T05:34:58;31.92;;;13.95;;
65156;SDS011;52745;49.794;18.258;2022-08-20T05:37:26;22.20;;;12.48;;
65156;SDS011;52745;49.794;18.258;2022-08-20T05:39:53;24.00;;;12.70;;
65156;SDS011;52745;49.794;18.258;2022-08-20T05:42:19;23.00;;;11.95;;
65156;SDS011;52745;49.794;18.258;2022-08-20T05:44:46;25.50;;;12.02;;
65156;SDS011;52745;49.794;18.258;2022-08-20T05:47:12;20.80;;;11.23;;
65156;SDS011;52745;49.794;18.258;2022-08-20T05:49:39;25.77;;;10.40;;
65156;SDS011;52745;49.794;18.258;2022-08-20T05:52:05;24.58;;;9.93;;
65156;SDS011;52745;49.794;18.258;2022-08-20T05:54:32;31.92;;;18.52;;
65156;SDS011;52745;49.794;18.258;2022-08-20T05:56:59;26.45;;;15.27;;
65156;SDS011;52745;49.794;18.258;2022-08-20T05:59:25;15.55;;;8.18;;
65156;SDS011;52745;49.794;18.258;2022-08-20T06:01:52;19.30;;;8.43;;
65156;SDS011;52745;49.794;18.258;2022-08-20T06:04:19;18.45;;;8.35;;
65156;SDS011;52745;49.794;18.258;2022-08-20T06:06:56;18.50;;;7.90;;
65156;SDS011;52745;49.794;18.258;2022-08-20T06:09:26;19.50;;;8.65;;
65156;SDS011;52745;49.794;18.258;2022-08-20T06:11:53;23.67;;;9.18;;
65156;SDS011;52745;49.794;18.258;2022-08-20T06:14:20;21.58;;;9.18;;
65156;SDS011;52745;49.794;18.258;2022-08-20T06:16:47;20.88;;;9.55;;
65156;SDS011;52745;49.794;18.258;2022-08-20T06:19:13;18.77;;;8.43;;
65156;SDS011;52745;49.794;18.258;2022-08-20T06:21:40;19.23;;;8.07;;
65156;SDS011;52745;49.794;18.258;2022-08-20T06:24:07;13.13;;;7.35;;
65156;SDS011;52745;49.794;18.258;2022-08-20T06:26:34;29.83;;;15.45;;
65156;SDS011;52745;49.794;18.258;2022-08-20T06:29:01;23.17;;;9.82;;
65156;SDS011;52745;49.794;18.258;2022-08-20T06:31:28;24.70;;;11.88;;
65156;SDS011;52745;49.794;18.258;2022-08-20T06:33:55;16.42;;;7.47;;
65156;SDS011;52745;49.794;18.258;2022-08-20T06:36:22;17.40;;;7.97;;
65156;SDS011;52745;49.794;18.258;2022-08-20T06:38:50;14.63;;;7.20;;
65156;SDS011;52745;49.794;18.258;2022-08-20T06:41:16;17.48;;;7.35;;
65156;SDS011;52745;49.794;18.258;2022-08-20T06:43:43;16.73;;;6.95;;
65156;SDS011;52745;49.794;18.258;2022-08-20T06:46:10;14.80;;;6.47;;
65156;SDS011;52745;49.794;18.258;2022-08-20T06:48:36;21.02;;;6.43;;
65156;SDS011;52745;49.794;18.258;2022-08-20T06:51:03;12.52;;;6.53;;
65156;SDS011;52745;49.794;18.258;2022-08-20T06:53:31;12.02;;;6.65;;
65156;SDS011;52745;49.794;18.258;2022-08-20T06:55:57;14.65;;;5.78;;
65156;SDS011;52745;49.794;18.258;2022-08-20T06:58:24;16.58;;;5.75;;
65156;SDS011;52745;49.794;18.258;2022-08-20T07:00:52;21.58;;;11.00;;
65156;SDS011;52745;49.794;18.258;2022-08-20T07:03:18;19.45;;;6.85;;
65156;SDS011;52745;49.794;18.258;2022-08-20T07:05:45;17.75;;;7.55;;
65156;SDS011;52745;49.794;18.258;2022-08-20T07:08:12;10.45;;;5.72;;
65156;SDS011;52745;49.794;18.258;2022-08-20T07:10:41;17.13;;;6.30;;
65156;SDS011;52745;49.794;18.258;2022-08-20T07:13:11;16.98;;;6.18;;
65156;SDS011;52745;49.794;18.258;2022-08-20T07:15:40;14.70;;;5.95;;
65156;SDS011;52745;49.794;18.258;2022-08-20T07:18:06;20.05;;;9.50;;
65156;SDS011;52745;49.794;18.258;2022-08-20T07:20:33;17.95;;;7.65;;
65156;SDS011;52745;49.794;18.258;2022-08-20T07:23:02;15.63;;;5.80;;
65156;SDS011;52745;49.794;18.258;2022-08-20T07:25:29;13.05;;;5.25;;
65156;SDS011;52745;49.794;18.258;2022-08-20T07:28:00;15.85;;;5.80;;
65156;SDS011;52745;49.794;18.258;2022-08-20T07:30:29;19.25;;;8.90;;
65156;SDS011;52745;49.794;18.258;2022-08-20T07:33:14;14.70;;;5.80;;
65156;SDS011;52745;49.794;18.258;2022-08-20T07:35:41;14.00;;;5.30;;
65156;SDS011;52745;49.794;18.258;2022-08-20T07:38:16;15.35;;;5.75;;
65156;SDS011;52745;49.794;18.258;2022-08-20T07:40:50;18.40;;;5.68;;
65156;SDS011;52745;49.794;18.258;2022-08-20T07:43:18;16.13;;;4.95;;
65156;SDS011;52745;49.794;18.258;2022-08-20T07:45:50;14.95;;;4.95;;
65156;SDS011;52745;49.794;18.258;2022-08-20T07:48:21;15.00;;;5.13;;
65156;SDS011;52745;49.794;18.258;2022-08-20T07:50:51;15.40;;;5.47;;
65156;SDS011;52745;49.794;18.258;2022-08-20T07:53:19;15.55;;;5.90;;
65156;SDS011;52745;49.794;18.258;2022-08-20T07:55:45;17.05;;;5.38;;
65156;SDS011;52745;49.794;18.258;2022-08-20T07:58:13;15.95;;;4.97;;
65156;SDS011;52745;49.794;18.258;2022-08-20T08:00:42;16.80;;;5.28;;
65156;SDS011;52745;49.794;18.258;2022-08-20T08:03:09;14.32;;;4.80;;
65156;SDS011;52745;49.794;18.258;2022-08-20T08:05:36;20.10;;;5.40;;
65156;SDS011;52745;49.794;18.258;2022-08-20T08:08:05;12.27;;;4.75;;
65156;SDS011;52745;49.794;18.258;2022-08-20T08:10:33;16.30;;;5.10;;
65156;SDS011;52745;49.794;18.258;2022-08-20T08:13:02;13.40;;;5.03;;
65156;SDS011;52745;49.794;18.258;2022-08-20T08:15:33;13.05;;;5.32;;
65156;SDS011;52745;49.794;18.258;2022-08-20T08:18:05;17.75;;;5.13;;
65156;SDS011;52745;49.794;18.258;2022-08-20T08:20:38;17.05;;;5.45;;
65156;SDS011;52745;49.794;18.258;2022-08-20T08:23:06;12.75;;;4.82;;
65156;SDS011;52745;49.794;18.258;2022-08-20T08:25:37;16.48;;;5.13;;
65156;SDS011;52745;49.794;18.258;2022-08-20T08:28:07;16.20;;;5.43;;
65156;SDS011;52745;49.794;18.258;2022-08-20T08:30:39;16.50;;;5.45;;
65156;SDS011;52745;49.794;18.258;2022-08-20T08:33:16;14.18;;;6.00;;
65156;SDS011;52745;49.794;18.258;2022-08-20T08:35:53;18.63;;;6.20;;
65156;SDS011;52745;49.794;18.258;2022-08-20T08:38:21;17.08;;;5.95;;
65156;SDS011;52745;49.794;18.258;2022-08-20T08:40:52;18.52;;;5.50;;
65156;SDS011;52745;49.794;18.258;2022-08-20T08:43:22;15.57;;;5.40;;
65156;SDS011;52745;49.794;18.258;2022-08-20T08:45:55;16.40;;;5.20;;
65156;SDS011;52745;49.794;18.258;2022-08-20T08:48:36;18.33;;;5.07;;
65156;SDS011;52745;49.794;18.258;2022-08-20T08:51:08;15.15;;;5.30;;
65156;SDS011;52745;49.794;18.258;2022-08-20T08:53:44;13.07;;;4.90;;
65156;SDS011;52745;49.794;18.258;2022-08-20T08:56:13;16.50;;;4.80;;
65156;SDS011;52745;49.794;18.258;2022-08-20T08:58:41;13.75;;;4.97;;
65156;SDS011;52745;49.794;18.258;2022-08-20T09:01:12;13.27;;;5.15;;
65156;SDS011;52745;49.794;18.258;2022-08-20T09:03:42;12.68;;;4.90;;
65156;SDS011;52745;49.794;18.258;2022-08-20T09:06:12;15.95;;;5.50;;
65156;SDS011;52745;49.794;18.258;2022-08-20T09:11:20;18.65;;;5.32;;
65156;SDS011;52745;49.794;18.258;2022-08-20T09:13:48;14.68;;;5.20;;
65156;SDS011;52745;49.794;18.258;2022-08-20T09:16:14;17.55;;;5.13;;
65156;SDS011;52745;49.794;18.258;2022-08-20T09:18:41;19.02;;;5.20;;
65156;SDS011;52745;49.794;18.258;2022-08-20T09:21:08;13.27;;;5.00;;
65156;SDS011;52745;49.794;18.258;2022-08-20T09:23:35;15.07;;;5.00;;
65156;SDS011;52745;49.794;18.258;2022-08-20T09:26:03;17.15;;;5.10;;
65156;SDS011;52745;49.794;18.258;2022-08-20T09:28:29;10.90;;;4.15;;
65156;SDS011;52745;49.794;18.258;2022-08-20T09:30:56;12.57;;;4.75;;
65156;SDS011;52745;49.794;18.258;2022-08-20T09:33:22;15.18;;;4.82;;
65156;SDS011;52745;49.794;18.258;2022-08-20T09:35:49;14.32;;;4.80;;
65156;SDS011;52745;49.794;18.258;2022-08-20T09:38:16;17.88;;;4.82;;
65156;SDS011;52745;49.794;18.258;2022-08-20T09:40:42;13.40;;;5.20;;
65156;SDS011;52745;49.794;18.258;2022-08-20T09:43:09;15.60;;;5.38;;
65156;SDS011;52745;49.794;18.258;2022-08-20T09:45:36;13.30;;;4.80;;
65156;SDS011;52745;49.794;18.258;2022-08-20T09:48:04;19.55;;;5.30;;
65156;SDS011;52745;49.794;18.258;2022-08-20T09:50:31;19.27;;;5.28;;
65156;SDS011;52745;49.794;18.258;2022-08-20T09:53:00;10.13;;;4.90;;
65156;SDS011;52745;49.794;18.258;2022-08-20T09:57:58;14.10;;;5.72;;
65156;SDS011;52745;49.794;18.258;2022-08-20T10:00:44;14.35;;;5.30;;
65156;SDS011;52745;49.794;18.258;2022-08-20T10:03:10;19.55;;;5.55;;
65156;SDS011;52745;49.794;18.258;2022-08-20T10:05:37;17.95;;;5.40;;
65156;SDS011;52745;49.794;18.258;2022-08-20T10:08:04;10.05;;;5.50;;
65156;SDS011;52745;49.794;18.258;2022-08-20T10:10:32;14.82;;;5.65;;
65156;SDS011;52745;49.794;18.258;2022-08-20T10:12:59;16.20;;;5.78;;
65156;SDS011;52745;49.794;18.258;2022-08-20T10:15:25;15.32;;;6.25;;
65156;SDS011;52745;49.794;18.258;2022-08-20T10:17:52;13.27;;;5.95;;
65156;SDS011;52745;49.794;18.258;2022-08-20T10:20:18;14.13;;;5.80;;
65156;SDS011;52745;49.794;18.258;2022-08-20T10:22:45;17.65;;;6.03;;
65156;SDS011;52745;49.794;18.258;2022-08-20T10:25:12;14.57;;;5.50;;
65156;SDS011;52745;49.794;18.258;2022-08-20T10:27:38;13.15;;;5.55;;
65156;SDS011;52745;49.794;18.258;2022-08-20T10:30:05;13.43;;;5.65;;
65156;SDS011;52745;49.794;18.258;2022-08-20T10:32:32;14.43;;;6.18;;
65156;SDS011;52745;49.794;18.258;2022-08-20T10:34:59;13.50;;;5.82;;
65156;SDS011;52745;49.794;18.258;2022-08-20T10:37:26;18.05;;;5.85;;
65156;SDS011;52745;49.794;18.258;2022-08-20T10:39:53;16.30;;;5.72;;
65156;SDS011;52745;49.794;18.258;2022-08-20T10:42:20;14.70;;;5.07;;
65156;SDS011;52745;49.794;18.258;2022-08-20T10:44:47;12.68;;;4.97;;
65156;SDS011;52745;49.794;18.258;2022-08-20T10:47:21;24.42;;;6.63;;
65156;SDS011;52745;49.794;18.258;2022-08-20T10:49:50;11.35;;;5.55;;
65156;SDS011;52745;49.794;18.258;2022-08-20T10:52:18;17.05;;;5.95;;
65156;SDS011;52745;49.794;18.258;2022-08-20T10:54:46;12.23;;;5.38;;
65156;SDS011;52745;49.794;18.258;2022-08-20T10:57:22;15.65;;;6.00;;
65156;SDS011;52745;49.794;18.258;2022-08-20T10:59:51;14.05;;;5.82;;
65156;SDS011;52745;49.794;18.258;2022-08-20T11:02:19;15.40;;;5.93;;
65156;SDS011;52745;49.794;18.258;2022-08-20T11:04:46;20.75;;;5.63;;
65156;SDS011;52745;49.794;18.258;2022-08-20T11:07:20;18.50;;;5.68;;
65156;SDS011;52745;49.794;18.258;2022-08-20T11:09:54;16.15;;;5.93;;
65156;SDS011;52745;49.794;18.258;2022-08-20T11:12:21;15.93;;;6.07;;
65156;SDS011;52745;49.794;18.258;2022-08-20T11:14:48;16.23;;;5.85;;
65156;SDS011;52745;49.794;18.258;2022-08-20T11:17:24;22.45;;;8.77;;
65156;SDS011;52745;49.794;18.258;2022-08-20T11:19:53;16.38;;;6.75;;
65156;SDS011;52745;49.794;18.258;2022-08-20T11:22:20;20.75;;;7.28;;
65156;SDS011;52745;49.794;18.258;2022-08-20T11:24:47;21.60;;;6.20;;
65156;SDS011;52745;49.794;18.258;2022-08-20T11:27:22;18.25;;;6.88;;
65156;SDS011;52745;49.794;18.258;2022-08-20T11:29:51;13.68;;;6.30;;
65156;SDS011;52745;49.794;18.258;2022-08-20T11:32:18;21.75;;;6.43;;
65156;SDS011;52745;49.794;18.258;2022-08-20T11:34:46;18.45;;;7.10;;
65156;SDS011;52745;49.794;18.258;2022-08-20T11:37:13;16.27;;;6.15;;
65156;SDS011;52745;49.794;18.258;2022-08-20T11:39:41;15.25;;;5.85;;
65156;SDS011;52745;49.794;18.258;2022-08-20T11:42:07;16.70;;;6.00;;
65156;SDS011;52745;49.794;18.258;2022-08-20T11:44:34;21.50;;;6.18;;
65156;SDS011;52745;49.794;18.258;2022-08-20T11:47:01;14.60;;;6.07;;
65156;SDS011;52745;49.794;18.258;2022-08-20T11:49:29;15.32;;;6.45;;
65156;SDS011;52745;49.794;18.258;2022-08-20T11:52:00;27.27;;;15.18;;
65156;SDS011;52745;49.794;18.258;2022-08-20T11:54:27;15.45;;;6.50;;
65156;SDS011;52745;49.794;18.258;2022-08-20T11:56:54;19.08;;;6.47;;
65156;SDS011;52745;49.794;18.258;2022-08-20T11:59:23;15.10;;;6.18;;
65156;SDS011;52745;49.794;18.258;2022-08-20T12:01:51;14.98;;;5.47;;
65156;SDS011;52745;49.794;18.258;2022-08-20T12:04:19;16.88;;;6.05;;
65156;SDS011;52745;49.794;18.258;2022-08-20T12:06:46;16.27;;;6.80;;
65156;SDS011;52745;49.794;18.258;2022-08-20T12:09:12;18.38;;;6.85;;
65156;SDS011;52745;49.794;18.258;2022-08-20T12:11:39;26.48;;;7.55;;
65156;SDS011;52745;49.794;18.258;2022-08-20T12:14:05;14.60;;;7.55;;
65156;SDS011;52745;49.794;18.258;2022-08-20T12:16:32;22.13;;;7.80;;
65156;SDS011;52745;49.794;18.258;2022-08-20T12:18:59;18.90;;;8.10;;
65156;SDS011;52745;49.794;18.258;2022-08-20T12:21:26;20.35;;;7.38;;
65156;SDS011;52745;49.794;18.258;2022-08-20T12:23:52;18.42;;;8.48;;
65156;SDS011;52745;49.794;18.258;2022-08-20T12:26:20;19.00;;;8.57;;
65156;SDS011;52745;49.794;18.258;2022-08-20T12:28:46;19.33;;;8.32;;
65156;SDS011;52745;49.794;18.258;2022-08-20T12:31:13;21.73;;;9.10;;
65156;SDS011;52745;49.794;18.258;2022-08-20T12:33:39;17.65;;;8.32;;
65156;SDS011;52745;49.794;18.258;2022-08-20T12:36:06;21.60;;;8.38;;
65156;SDS011;52745;49.794;18.258;2022-08-20T12:38:33;19.17;;;8.30;;
65156;SDS011;52745;49.794;18.258;2022-08-20T12:41:00;19.10;;;8.15;;
65156;SDS011;52745;49.794;18.258;2022-08-20T12:43:27;18.17;;;7.38;;
65156;SDS011;52745;49.794;18.258;2022-08-20T12:45:54;16.40;;;7.85;;
65156;SDS011;52745;49.794;18.258;2022-08-20T12:48:20;18.30;;;7.30;;
65156;SDS011;52745;49.794;18.258;2022-08-20T12:50:47;18.73;;;7.97;;
65156;SDS011;52745;49.794;18.258;2022-08-20T12:53:15;13.88;;;6.95;;
65156;SDS011;52745;49.794;18.258;2022-08-20T12:55:41;12.13;;;6.75;;
65156;SDS011;52745;49.794;18.258;2022-08-20T12:58:08;20.33;;;6.95;;
65156;SDS011;52745;49.794;18.258;2022-08-20T13:00:37;19.33;;;7.25;;
65156;SDS011;52745;49.794;18.258;2022-08-20T13:03:10;18.48;;;7.38;;
65156;SDS011;52745;49.794;18.258;2022-08-20T13:05:37;22.23;;;7.80;;
65156;SDS011;52745;49.794;18.258;2022-08-20T13:08:05;21.05;;;7.53;;
65156;SDS011;52745;49.794;18.258;2022-08-20T13:10:34;17.00;;;7.20;;
65156;SDS011;52745;49.794;18.258;2022-08-20T13:13:02;16.10;;;6.03;;
65156;SDS011;52745;49.794;18.258;2022-08-20T13:15:30;18.95;;;6.68;;
65156;SDS011;52745;49.794;18.258;2022-08-20T13:17:58;20.15;;;6.57;;
65156;SDS011;52745;49.794;18.258;2022-08-20T13:20:27;19.13;;;6.22;;
65156;SDS011;52745;49.794;18.258;2022-08-20T13:22:53;21.98;;;6.47;;
65156;SDS011;52745;49.794;18.258;2022-08-20T13:25:20;12.93;;;5.90;;
65156;SDS011;52745;49.794;18.258;2022-08-20T13:27:49;18.92;;;6.35;;
65156;SDS011;52745;49.794;18.258;2022-08-20T13:30:19;19.00;;;6.60;;
65156;SDS011;52745;49.794;18.258;2022-08-20T13:32:46;17.23;;;6.05;;
65156;SDS011;52745;49.794;18.258;2022-08-20T13:35:13;16.95;;;6.82;;
65156;SDS011;52745;49.794;18.258;2022-08-20T13:37:40;14.25;;;6.43;;
65156;SDS011;52745;49.794;18.258;2022-08-20T13:40:08;12.88;;;5.40;;
65156;SDS011;52745;49.794;18.258;2022-08-20T13:42:35;16.55;;;5.35;;
65156;SDS011;52745;49.794;18.258;2022-08-20T13:45:02;13.93;;;5.22;;
65156;SDS011;52745;49.794;18.258;2022-08-20T13:47:31;16.88;;;6.07;;
65156;SDS011;52745;49.794;18.258;2022-08-20T13:50:00;13.05;;;5.43;;
65156;SDS011;52745;49.794;18.258;2022-08-20T13:52:31;13.50;;;4.78;;
65156;SDS011;52745;49.794;18.258;2022-08-20T13:54:58;16.27;;;5.00;;
65156;SDS011;52745;49.794;18.258;2022-08-20T13:57:25;14.85;;;5.28;;
65156;SDS011;52745;49.794;18.258;2022-08-20T13:59:53;15.68;;;5.00;;
65156;SDS011;52745;49.794;18.258;2022-08-20T14:02:22;13.20;;;5.28;;
65156;SDS011;52745;49.794;18.258;2022-08-20T14:04:50;12.75;;;4.82;;
65156;SDS011;52745;49.794;18.258;2022-08-20T14:07:21;15.55;;;5.47;;
65156;SDS011;52745;49.794;18.258;2022-08-20T14:09:56;13.85;;;5.25;;
65156;SDS011;52745;49.794;18.258;2022-08-20T14:12:25;16.40;;;5.30;;
65156;SDS011;52745;49.794;18.258;2022-08-20T14:14:52;13.63;;;5.57;;
65156;SDS011;52745;49.794;18.258;2022-08-20T14:19:51;13.80;;;5.07;;
65156;SDS011;52745;49.794;18.258;2022-08-20T14:22:20;16.02;;;5.10;;
65156;SDS011;52745;49.794;18.258;2022-08-20T14:24:48;14.10;;;5.25;;
65156;SDS011;52745;49.794;18.258;2022-08-20T14:27:15;12.20;;;5.10;;
65156;SDS011;52745;49.794;18.258;2022-08-20T14:29:45;14.85;;;5.60;;
65156;SDS011;52745;49.794;18.258;2022-08-20T14:32:13;12.73;;;5.60;;
65156;SDS011;52745;49.794;18.258;2022-08-20T14:34:40;16.35;;;5.38;;
65156;SDS011;52745;49.794;18.258;2022-08-20T14:39:41;15.30;;;5.57;;
65156;SDS011;52745;49.794;18.258;2022-08-20T14:42:09;16.63;;;5.80;;
65156;SDS011;52745;49.794;18.258;2022-08-20T14:44:36;14.77;;;6.40;;
65156;SDS011;52745;49.794;18.258;2022-08-20T14:47:14;18.17;;;6.32;;
65156;SDS011;52745;49.794;18.258;2022-08-20T14:49:52;18.42;;;6.75;;